Time;durP1;ratioP1;P1;durP2;ratioP2;P2;SDS_P1;SDS_P2;PMS_P1;PMS_P2;Temp;Humidity;BMP_temperature;BMP_pressure;BME280_temperature;BME280_humidity;BME280_pressure;Samples;Min_cycle;Max_cycle;Signal;HPM_P1;HPM_P2
2021/03/05 00:01:13;;;;;;;13.05;5.50;;;6.30;99.90;;;;;;5007906;28;20079;-84
2021/03/05 00:03:38;;;;;;;8.30;4.57;;;6.30;99.90;;;;;;5018976;28;20743;-84
2021/03/05 00:06:04;;;;;;;9.23;4.75;;;6.40;99.90;;;;;;5007237;28;20199;-84
2021/03/05 00:08:30;;;;;;;6.93;4.57;;;6.20;99.90;;;;;;5013048;28;20093;-83
2021/03/05 00:10:56;;;;;;;9.20;4.80;;;6.30;99.90;;;;;;5007006;28;20078;-83
2021/03/05 00:13:24;;;;;;;7.82;4.20;;;6.30;99.90;;;;;;5023487;28;20508;-84
2021/03/05 00:15:50;;;;;;;8.05;4.47;;;6.20;99.90;;;;;;5014719;28;20556;-82
2021/03/05 00:18:16;;;;;;;10.15;5.13;;;6.30;99.90;;;;;;5016433;28;20078;-82
2021/03/05 00:20:47;;;;;;;6.47;4.40;;;6.30;99.90;;;;;;5012907;28;20079;-80
2021/03/05 00:23:13;;;;;;;7.90;4.25;;;6.20;99.90;;;;;;5013046;28;20098;-80
2021/03/05 00:25:39;;;;;;;5.57;3.72;;;6.30;99.90;;;;;;5005675;28;20098;-80
2021/03/05 00:28:06;;;;;;;10.20;4.10;;;6.30;99.90;;;;;;5023912;28;20175;-80
2021/03/05 00:30:33;;;;;;;6.43;4.78;;;6.40;99.90;;;;;;5013258;28;20545;-80
2021/03/05 00:32:59;;;;;;;7.78;3.38;;;6.30;99.90;;;;;;5010192;28;20082;-81
2021/03/05 00:35:24;;;;;;;7.28;3.33;;;6.40;99.90;;;;;;5026035;28;20098;-80
2021/03/05 00:37:51;;;;;;;6.60;3.80;;;6.30;99.90;;;;;;5012323;28;20074;-80
2021/03/05 00:40:19;;;;;;;5.40;3.60;;;6.30;99.90;;;;;;4996113;28;20085;-80
2021/03/05 00:42:45;;;;;;;8.90;4.60;;;6.30;99.90;;;;;;5006013;28;20090;-79
2021/03/05 00:45:13;;;;;;;5.25;3.28;;;6.30;99.90;;;;;;5013975;28;20077;-80
2021/03/05 00:47:38;;;;;;;3.88;3.03;;;6.30;99.90;;;;;;5015018;28;20126;-80
2021/03/05 00:50:06;;;;;;;5.45;3.45;;;6.30;99.90;;;;;;5017570;28;20525;-80
2021/03/05 00:52:32;;;;;;;5.43;3.92;;;6.30;99.90;;;;;;5016711;28;20145;-80
2021/03/05 00:54:58;;;;;;;5.03;3.28;;;6.40;99.90;;;;;;5016901;28;20550;-79
2021/03/05 00:57:24;;;;;;;4.72;3.03;;;6.30;99.90;;;;;;5014449;28;20234;-79
2021/03/05 00:59:49;;;;;;;5.70;3.45;;;6.30;99.90;;;;;;5015478;28;20595;-81
2021/03/05 01:02:15;;;;;;;6.35;3.75;;;6.20;99.90;;;;;;5015120;28;20082;-82
2021/03/05 01:04:41;;;;;;;6.78;3.53;;;6.30;99.90;;;;;;5001336;28;20085;-82
2021/03/05 01:07:07;;;;;;;5.35;3.30;;;6.20;99.90;;;;;;5007572;28;20102;-82
2021/03/05 01:09:33;;;;;;;5.72;3.50;;;6.30;99.90;;;;;;5013234;28;20086;-83
2021/03/05 01:11:58;;;;;;;8.23;4.30;;;6.30;99.90;;;;;;5008852;28;20089;-83
2021/03/05 01:14:24;;;;;;;8.07;3.80;;;6.30;99.90;;;;;;5011770;28;20164;-82
2021/03/05 01:16:50;;;;;;;7.18;3.40;;;6.30;99.90;;;;;;5002658;28;20177;-83
2021/03/05 01:19:16;;;;;;;5.20;4.20;;;6.40;99.90;;;;;;5018867;28;20070;-83
2021/03/05 01:21:42;;;;;;;7.97;4.20;;;6.40;99.90;;;;;;5014175;28;20089;-82
2021/03/05 01:24:09;;;;;;;6.63;3.60;;;6.40;99.90;;;;;;5027886;28;20070;-83
2021/03/05 01:26:35;;;;;;;7.70;3.88;;;6.40;99.90;;;;;;5008403;28;20093;-82
2021/03/05 01:29:01;;;;;;;8.07;4.72;;;6.40;99.90;;;;;;5023846;28;20113;-84
2021/03/05 01:31:27;;;;;;;7.43;3.53;;;6.40;99.90;;;;;;5004283;28;20095;-83
2021/03/05 01:33:53;;;;;;;3.63;3.15;;;6.40;99.90;;;;;;5018370;28;20093;-84
2021/03/05 01:36:19;;;;;;;5.60;3.38;;;6.50;99.90;;;;;;5029082;28;20699;-84
2021/03/05 01:38:45;;;;;;;6.20;3.80;;;6.50;99.90;;;;;;5021615;28;20092;-83
2021/03/05 01:41:10;;;;;;;6.57;3.97;;;6.40;99.90;;;;;;5009370;28;20078;-83
2021/03/05 01:43:39;;;;;;;5.72;3.63;;;6.40;99.90;;;;;;5018782;28;20100;-83
2021/03/05 01:46:06;;;;;;;7.30;4.20;;;6.50;99.90;;;;;;5019190;28;20478;-83
2021/03/05 01:48:32;;;;;;;5.05;3.08;;;6.40;99.90;;;;;;5017718;28;20093;-83
2021/03/05 01:51:21;;;;;;;5.57;3.67;;;6.40;99.90;;;;;;5005720;28;20165;-82
2021/03/05 01:53:48;;;;;;;5.53;3.55;;;6.40;99.90;;;;;;5019826;28;20082;-84
2021/03/05 01:56:26;;;;;;;7.65;3.78;;;6.40;99.90;;;;;;5019492;28;20101;-82
2021/03/05 01:58:52;;;;;;;9.57;5.20;;;6.40;99.90;;;;;;5004790;28;20516;-83
2021/03/05 02:01:18;;;;;;;6.70;4.88;;;6.30;99.90;;;;;;5018732;28;20089;-82
2021/03/05 02:03:43;;;;;;;6.10;4.05;;;6.30;99.90;;;;;;5014141;28;20086;-84
2021/03/05 02:06:09;;;;;;;6.53;3.80;;;6.40;99.90;;;;;;5015143;28;20104;-83
2021/03/05 02:08:35;;;;;;;7.68;4.38;;;6.40;99.90;;;;;;5000991;28;20475;-83
2021/03/05 02:11:01;;;;;;;6.72;4.20;;;6.40;99.90;;;;;;5015467;28;20078;-82
2021/03/05 02:13:28;;;;;;;6.28;4.53;;;6.30;99.90;;;;;;5016464;28;20089;-83
2021/03/05 02:15:55;;;;;;;6.10;4.15;;;6.30;99.90;;;;;;5015847;28;20201;-82
2021/03/05 02:18:38;;;;;;;8.77;4.70;;;6.30;99.90;;;;;;5017286;28;20109;-81
2021/03/05 02:21:22;;;;;;;9.13;4.63;;;6.30;99.90;;;;;;5005706;28;20075;-79
2021/03/05 02:24:20;;;;;;;5.60;4.23;;;6.40;99.90;;;;;;5005815;28;20094;-81
2021/03/05 02:27:18;;;;;;;6.07;4.10;;;6.40;99.90;;;;;;4999329;28;20101;-81
2021/03/05 02:30:02;;;;;;;7.63;4.72;;;6.40;99.90;;;;;;5005157;28;20484;-81
2021/03/05 02:32:41;;;;;;;6.77;4.80;;;6.40;99.90;;;;;;5008293;28;20153;-82
2021/03/05 02:35:08;;;;;;;5.97;4.93;;;6.40;99.90;;;;;;5015506;28;20081;-80
2021/03/05 02:37:44;;;;;;;7.82;4.47;;;6.40;99.90;;;;;;5012789;28;20098;-82
2021/03/05 02:40:28;;;;;;;8.00;4.60;;;6.40;99.90;;;;;;5030608;28;20085;-80
2021/03/05 02:43:01;;;;;;;6.45;4.78;;;6.40;99.90;;;;;;5013806;28;20145;-81
2021/03/05 02:45:34;;;;;;;8.50;4.78;;;6.40;99.90;;;;;;4999794;28;20109;-82
2021/03/05 02:48:13;;;;;;;5.43;4.43;;;6.40;99.90;;;;;;5012478;28;20082;-81
2021/03/05 02:50:42;;;;;;;5.93;4.53;;;6.40;99.90;;;;;;5015139;28;20532;-82
2021/03/05 02:53:12;;;;;;;9.35;4.20;;;6.40;99.90;;;;;;5012369;28;20082;-81
2021/03/05 02:55:40;;;;;;;7.20;4.95;;;6.40;99.90;;;;;;5003793;28;20105;-80
2021/03/05 02:58:06;;;;;;;6.18;4.30;;;6.40;99.90;;;;;;5011035;28;20102;-81
2021/03/05 03:00:33;;;;;;;5.65;3.88;;;6.40;99.90;;;;;;5005670;28;20169;-82
2021/03/05 03:02:59;;;;;;;6.88;4.38;;;6.40;99.90;;;;;;5014873;28;20080;-81
2021/03/05 03:05:28;;;;;;;6.28;4.07;;;6.40;99.90;;;;;;5014113;28;20568;-81
2021/03/05 03:07:56;;;;;;;6.13;4.78;;;6.40;99.90;;;;;;5012201;28;20499;-82
2021/03/05 03:10:25;;;;;;;9.90;4.90;;;6.40;99.90;;;;;;5018581;28;20489;-81
2021/03/05 03:12:56;;;;;;;5.07;3.92;;;6.40;99.90;;;;;;4999734;28;20074;-82
2021/03/05 03:15:26;;;;;;;7.53;5.07;;;6.40;99.90;;;;;;5007259;28;20541;-82
2021/03/05 03:17:54;;;;;;;7.07;4.65;;;6.50;99.90;;;;;;5016036;28;20097;-79
2021/03/05 03:20:21;;;;;;;8.05;4.88;;;6.50;99.90;;;;;;5013259;28;20073;-81
2021/03/05 03:22:47;;;;;;;6.93;4.93;;;6.50;99.90;;;;;;4998903;28;20435;-81
2021/03/05 03:25:14;;;;;;;9.88;6.35;;;6.50;99.90;;;;;;5012402;28;20067;-81
2021/03/05 03:27:41;;;;;;;9.32;6.18;;;6.40;99.90;;;;;;5013970;28;20124;-80
2021/03/05 03:30:12;;;;;;;8.73;4.90;;;6.40;99.90;;;;;;5001047;28;20070;-82
2021/03/05 03:32:38;;;;;;;6.32;4.65;;;6.40;99.90;;;;;;5020331;28;20075;-80
2021/03/05 03:35:06;;;;;;;9.85;5.05;;;6.40;99.90;;;;;;4998076;28;20085;-83
2021/03/05 03:37:33;;;;;;;7.10;4.68;;;6.50;99.90;;;;;;5012969;28;20630;-80
2021/03/05 03:40:19;;;;;;;6.20;4.78;;;6.50;99.90;;;;;;4998030;28;20078;-81
2021/03/05 03:42:46;;;;;;;8.32;5.07;;;6.40;99.90;;;;;;5001074;28;20086;-82
2021/03/05 03:45:14;;;;;;;9.95;5.35;;;6.40;99.90;;;;;;4998111;28;20525;-80
2021/03/05 03:47:41;;;;;;;10.07;5.53;;;6.50;99.90;;;;;;4981732;28;20098;-82
2021/03/05 03:50:13;;;;;;;8.15;5.05;;;6.40;99.90;;;;;;5007880;28;20082;-82
2021/03/05 03:52:54;;;;;;;6.60;5.13;;;6.40;99.90;;;;;;5011161;28;20089;-80
2021/03/05 03:55:20;;;;;;;7.47;5.65;;;6.40;99.90;;;;;;5002708;28;20280;-81
2021/03/05 03:57:48;;;;;;;11.48;6.47;;;6.40;99.90;;;;;;4997311;28;20147;-79
2021/03/05 04:00:16;;;;;;;8.18;5.70;;;6.30;99.90;;;;;;5008213;28;20071;-81
2021/03/05 04:02:55;;;;;;;9.27;5.32;;;6.30;99.90;;;;;;5017417;28;20488;-82
2021/03/05 04:05:24;;;;;;;7.60;5.40;;;6.40;99.90;;;;;;5011771;28;20100;-81
2021/03/05 04:07:51;;;;;;;8.18;5.60;;;6.40;99.90;;;;;;5000777;28;20088;-80
2021/03/05 04:10:18;;;;;;;8.52;5.68;;;6.40;99.90;;;;;;4998278;28;20128;-79
2021/03/05 04:12:46;;;;;;;7.40;5.75;;;6.40;99.90;;;;;;5009609;28;20082;-81
2021/03/05 04:15:12;;;;;;;8.00;6.10;;;6.40;99.90;;;;;;5014658;28;20078;-81
2021/03/05 04:17:38;;;;;;;10.23;6.63;;;6.50;99.90;;;;;;5016429;28;20086;-84
2021/03/05 04:20:05;;;;;;;9.20;7.05;;;6.50;99.90;;;;;;5006743;28;20082;-81
2021/03/05 04:22:33;;;;;;;8.48;6.22;;;6.40;99.90;;;;;;5029808;28;20086;-81
2021/03/05 04:24:59;;;;;;;9.82;6.60;;;6.40;99.90;;;;;;5010052;28;20136;-82
2021/03/05 04:27:25;;;;;;;8.40;6.40;;;6.40;99.90;;;;;;5013245;28;20078;-83
2021/03/05 04:29:52;;;;;;;12.88;5.90;;;6.40;99.90;;;;;;5003711;28;20125;-81
2021/03/05 04:32:18;;;;;;;8.27;6.35;;;6.40;99.90;;;;;;5006817;28;20097;-81
2021/03/05 04:34:43;;;;;;;10.02;6.35;;;6.40;99.90;;;;;;5015508;28;20483;-82
2021/03/05 04:37:09;;;;;;;8.18;5.75;;;6.30;99.90;;;;;;5014674;28;20122;-81
2021/03/05 04:39:35;;;;;;;10.65;5.90;;;6.30;99.90;;;;;;5012349;28;20517;-81
2021/03/05 04:42:00;;;;;;;14.40;5.93;;;6.30;99.90;;;;;;5015515;28;20081;-81
2021/03/05 04:44:26;;;;;;;10.60;6.55;;;6.20;99.90;;;;;;5014001;28;20101;-82
2021/03/05 04:46:52;;;;;;;8.45;5.63;;;6.20;99.90;;;;;;4996784;28;20193;-80
2021/03/05 04:49:17;;;;;;;10.68;6.97;;;6.30;99.90;;;;;;4996599;28;20094;-83
2021/03/05 04:51:43;;;;;;;9.70;6.10;;;6.20;99.90;;;;;;4998970;28;20077;-81
2021/03/05 04:54:09;;;;;;;9.57;5.53;;;6.20;99.90;;;;;;5026341;28;20096;-80
2021/03/05 04:56:35;;;;;;;7.40;5.75;;;6.30;99.90;;;;;;5007965;28;20105;-81
2021/03/05 04:59:02;;;;;;;9.82;6.38;;;6.30;99.90;;;;;;4998744;28;20495;-81
2021/03/05 05:01:28;;;;;;;8.90;6.25;;;6.30;99.90;;;;;;5003831;28;20085;-81
2021/03/05 05:03:53;;;;;;;9.38;5.55;;;6.20;99.90;;;;;;5014457;28;20465;-79
2021/03/05 05:06:20;;;;;;;8.63;6.47;;;6.30;99.90;;;;;;5013209;28;20101;-81
2021/03/05 05:08:45;;;;;;;9.57;7.15;;;6.20;99.90;;;;;;5010694;28;20078;-81
2021/03/05 05:11:14;;;;;;;8.10;5.60;;;6.30;99.90;;;;;;5007629;28;20082;-81
2021/03/05 05:13:40;;;;;;;10.90;7.07;;;6.20;99.90;;;;;;5002278;28;20093;-81
2021/03/05 05:16:06;;;;;;;10.05;7.43;;;6.20;99.90;;;;;;5010517;28;20098;-81
2021/03/05 05:18:32;;;;;;;12.02;7.25;;;6.20;99.90;;;;;;5004904;28;20074;-81
2021/03/05 05:20:58;;;;;;;8.32;6.22;;;6.10;99.90;;;;;;4996006;28;20093;-79
2021/03/05 05:23:24;;;;;;;9.55;6.70;;;6.10;99.90;;;;;;4995264;28;20173;-81
2021/03/05 05:25:49;;;;;;;10.90;5.85;;;6.00;99.90;;;;;;5001912;28;20102;-81
2021/03/05 05:28:15;;;;;;;9.90;5.43;;;6.00;99.90;;;;;;5013608;28;20101;-81
2021/03/05 05:30:41;;;;;;;8.63;5.00;;;5.90;99.90;;;;;;4995596;28;20112;-82
2021/03/05 05:33:06;;;;;;;7.70;5.50;;;5.90;99.90;;;;;;5012593;28;20112;-81
2021/03/05 05:35:32;;;;;;;7.63;4.65;;;5.80;99.90;;;;;;5004685;28;20110;-80
2021/03/05 05:37:58;;;;;;;5.55;4.40;;;5.80;99.90;;;;;;5011146;28;20543;-82
2021/03/05 05:40:24;;;;;;;5.63;4.15;;;5.60;99.90;;;;;;5012986;28;20085;-82
2021/03/05 05:42:51;;;;;;;5.05;4.15;;;5.70;99.90;;;;;;5015238;28;20090;-82
2021/03/05 05:45:20;;;;;;;8.23;4.80;;;5.60;99.90;;;;;;5005923;28;20132;-80
2021/03/05 05:47:46;;;;;;;6.75;4.95;;;5.60;99.90;;;;;;5006129;28;20109;-81
2021/03/05 05:50:12;;;;;;;6.40;4.55;;;5.70;99.90;;;;;;5020543;28;20074;-82
2021/03/05 05:52:40;;;;;;;7.55;4.13;;;5.50;99.90;;;;;;5014974;28;20074;-84
2021/03/05 05:55:08;;;;;;;10.88;6.03;;;5.60;99.90;;;;;;5023811;28;20078;-86
2021/03/05 05:57:37;;;;;;;5.78;4.60;;;5.50;99.90;;;;;;5038741;28;20109;-84
2021/03/05 06:00:05;;;;;;;7.90;5.55;;;5.50;99.90;;;;;;5020335;28;20739;-82
2021/03/05 06:02:32;;;;;;;10.13;5.85;;;5.40;99.90;;;;;;5015618;28;20080;-79
2021/03/05 06:04:58;;;;;;;8.18;5.80;;;5.40;99.90;;;;;;5006636;28;20093;-79
2021/03/05 06:07:24;;;;;;;9.15;5.90;;;5.30;99.90;;;;;;5012977;28;20492;-80
2021/03/05 06:09:51;;;;;;;9.07;6.25;;;5.20;99.90;;;;;;5023927;28;20152;-79
2021/03/05 06:12:18;;;;;;;9.02;5.63;;;5.10;99.90;;;;;;5022295;28;20089;-80
2021/03/05 06:14:45;;;;;;;8.98;6.20;;;5.10;99.90;;;;;;5005365;28;20089;-80
2021/03/05 06:17:11;;;;;;;11.35;7.45;;;5.00;99.90;;;;;;5009144;28;20630;-80
2021/03/05 06:19:37;;;;;;;9.48;6.97;;;4.90;99.90;;;;;;5009012;28;20086;-80
2021/03/05 06:22:21;;;;;;;16.63;10.48;;;4.80;99.90;;;;;;5015904;28;20078;-80
2021/03/05 06:24:47;;;;;;;9.52;7.18;;;4.80;99.90;;;;;;5013563;28;20189;-78
2021/03/05 06:27:14;;;;;;;9.32;7.45;;;4.70;99.90;;;;;;5008495;28;20102;-78
2021/03/05 06:29:47;;;;;;;14.35;10.02;;;4.70;99.90;;;;;;5008852;28;20516;-79
2021/03/05 06:32:18;;;;;;;7.93;5.95;;;4.70;99.90;;;;;;5011296;28;20086;-79
2021/03/05 06:34:47;;;;;;;7.82;6.43;;;4.70;99.90;;;;;;5006354;28;20143;-78
2021/03/05 06:37:14;;;;;;;5.93;5.30;;;4.70;99.90;;;;;;5012462;28;20098;-78
2021/03/05 06:39:40;;;;;;;6.75;5.40;;;4.70;99.90;;;;;;5006631;28;20082;-79
2021/03/05 06:42:13;;;;;;;7.32;5.50;;;4.60;99.90;;;;;;5012020;28;20078;-79
2021/03/05 06:44:45;;;;;;;5.00;4.32;;;4.70;99.90;;;;;;4999806;28;20086;-79
2021/03/05 06:47:22;;;;;;;7.82;5.43;;;4.60;99.90;;;;;;5004837;28;20703;-78
2021/03/05 06:49:49;;;;;;;5.68;4.47;;;4.60;99.90;;;;;;5011015;28;20121;-80
2021/03/05 06:52:17;;;;;;;7.57;5.00;;;4.50;99.90;;;;;;4995435;28;20824;-79
2021/03/05 06:54:45;;;;;;;4.85;3.90;;;4.40;99.90;;;;;;4994871;28;20109;-79
2021/03/05 06:57:12;;;;;;;4.22;3.42;;;4.30;99.90;;;;;;5012009;28;20105;-79
2021/03/05 06:59:42;;;;;;;4.35;3.80;;;4.20;99.90;;;;;;5010533;28;20410;-80
2021/03/05 07:02:14;;;;;;;4.03;3.58;;;4.00;99.90;;;;;;4999446;28;20152;-81
2021/03/05 07:04:50;;;;;;;4.68;4.20;;;3.90;99.90;;;;;;5008232;28;20079;-82
2021/03/05 07:07:20;;;;;;;4.88;3.70;;;3.90;99.90;;;;;;4999128;28;20109;-82
2021/03/05 07:09:54;;;;;;;5.25;3.88;;;3.90;99.90;;;;;;5012563;28;20079;-80
2021/03/05 07:12:24;;;;;;;7.53;4.85;;;3.80;99.90;;;;;;5024031;28;20117;-83
2021/03/05 07:15:00;;;;;;;5.00;4.05;;;3.70;99.90;;;;;;5015048;28;20093;-84
2021/03/05 07:17:27;;;;;;;6.15;4.70;;;3.50;99.90;;;;;;5011599;28;20090;-83
2021/03/05 07:19:58;;;;;;;6.57;5.07;;;3.30;99.90;;;;;;5007065;28;20089;-83
2021/03/05 07:22:27;;;;;;;6.13;4.53;;;3.20;99.90;;;;;;5014008;28;20086;-83
2021/03/05 07:24:55;;;;;;;7.53;4.97;;;3.20;99.90;;;;;;5025795;28;20536;-83
2021/03/05 07:27:30;;;;;;;5.53;4.50;;;3.20;99.90;;;;;;4999356;28;20101;-82
2021/03/05 07:29:58;;;;;;;6.50;4.93;;;3.10;99.90;;;;;;5013452;28;20736;-84
2021/03/05 07:32:34;;;;;;;6.53;4.82;;;3.20;99.90;;;;;;5015814;28;20194;-84
2021/03/05 07:35:05;;;;;;;6.53;5.05;;;3.10;99.90;;;;;;5002028;28;20509;-81
2021/03/05 07:37:31;;;;;;;7.30;5.45;;;3.00;99.90;;;;;;5005886;28;20123;-83
2021/03/05 07:40:06;;;;;;;8.77;5.55;;;3.00;99.90;;;;;;5013590;28;20062;-82
2021/03/05 07:42:33;;;;;;;9.02;5.65;;;2.90;99.90;;;;;;5020682;28;20084;-81
2021/03/05 07:45:01;;;;;;;8.77;6.00;;;3.00;99.90;;;;;;5012084;28;20082;-83
2021/03/05 07:47:30;;;;;;;9.75;6.20;;;3.00;99.90;;;;;;4998048;28;20082;-81
2021/03/05 07:50:01;;;;;;;9.77;6.53;;;2.90;99.90;;;;;;5004855;28;20074;-82
2021/03/05 07:52:27;;;;;;;9.95;6.65;;;2.90;99.90;;;;;;5022947;28;20141;-81
2021/03/05 07:54:56;;;;;;;9.85;6.20;;;3.00;99.90;;;;;;5013462;28;20117;-82
2021/03/05 07:57:25;;;;;;;12.35;7.97;;;2.90;99.90;;;;;;4997569;28;20106;-80
2021/03/05 07:59:52;;;;;;;12.55;8.30;;;2.80;99.90;;;;;;5011014;28;20088;-83
2021/03/05 08:02:19;;;;;;;11.25;6.75;;;2.90;99.90;;;;;;5014751;28;20136;-82
2021/03/05 08:04:52;;;;;;;14.48;8.32;;;2.90;99.90;;;;;;5021402;28;20073;-79
2021/03/05 08:07:23;;;;;;;10.85;7.13;;;2.70;99.90;;;;;;5010193;28;20442;-79
2021/03/05 08:09:50;;;;;;;12.10;6.80;;;2.80;99.90;;;;;;5001896;28;20082;-79
2021/03/05 08:15:08;;;;;;;8.85;5.95;;;2.90;99.90;;;;;;5012471;28;20074;-79
2021/03/05 08:17:42;;;;;;;11.48;6.53;;;2.80;99.90;;;;;;5026223;28;20148;-78
2021/03/05 08:20:17;;;;;;;8.48;5.53;;;2.80;99.90;;;;;;5004373;28;20078;-79
2021/03/05 08:22:58;;;;;;;7.35;5.40;;;3.00;99.90;;;;;;5018485;28;20074;-78
2021/03/05 08:25:24;;;;;;;9.20;6.13;;;2.90;99.90;;;;;;5018752;28;20090;-79
2021/03/05 08:27:50;;;;;;;6.68;5.10;;;3.00;99.90;;;;;;5008605;28;20103;-80
2021/03/05 08:30:19;;;;;;;6.80;5.38;;;3.00;99.90;;;;;;5006468;28;20166;-79
2021/03/05 08:33:01;;;;;;;10.07;6.03;;;3.00;99.90;;;;;;5015267;28;20103;-84
2021/03/05 08:35:30;;;;;;;8.60;5.70;;;3.00;99.90;;;;;;5012038;28;20631;-83
2021/03/05 08:38:05;;;;;;;6.63;4.93;;;3.20;99.90;;;;;;5018011;28;20074;-82
2021/03/05 08:40:34;;;;;;;9.07;5.22;;;3.30;99.90;;;;;;5004449;28;20086;-83
2021/03/05 08:43:09;;;;;;;9.90;6.10;;;3.00;99.90;;;;;;5000530;28;20164;-82
2021/03/05 08:46:02;;;;;;;8.40;5.20;;;3.10;99.90;;;;;;5004335;28;20164;-84
2021/03/05 08:48:37;;;;;;;9.43;5.35;;;3.10;99.90;;;;;;5012185;28;20177;-81
2021/03/05 08:51:02;;;;;;;10.75;5.60;;;3.10;99.90;;;;;;4998012;28;20074;-82
2021/03/05 08:53:28;;;;;;;10.80;5.63;;;3.10;99.90;;;;;;5009743;28;20611;-82
2021/03/05 08:55:54;;;;;;;9.48;5.75;;;3.20;99.90;;;;;;5009084;28;20099;-82
2021/03/05 08:58:20;;;;;;;8.50;5.22;;;3.10;99.90;;;;;;5024378;28;20085;-82
2021/03/05 09:00:53;;;;;;;9.05;5.15;;;3.10;99.90;;;;;;5017267;28;20165;-84
2021/03/05 09:03:19;;;;;;;8.60;5.80;;;3.00;99.90;;;;;;5008633;28;20078;-88
2021/03/05 09:05:50;;;;;;;9.63;6.05;;;2.80;99.90;;;;;;5006019;28;20188;-81
2021/03/05 09:08:20;;;;;;;7.53;4.93;;;2.90;99.90;;;;;;5006912;28;20094;-81
2021/03/05 09:10:51;;;;;;;12.32;6.60;;;2.90;99.90;;;;;;5008037;28;20070;-81
2021/03/05 09:13:20;;;;;;;10.15;6.35;;;2.90;99.90;;;;;;4993717;28;20082;-80
2021/03/05 09:15:50;;;;;;;9.68;5.85;;;2.70;99.90;;;;;;5002319;28;20098;-81
2021/03/05 09:18:21;;;;;;;12.93;6.47;;;2.80;99.90;;;;;;5027029;28;20078;-85
2021/03/05 09:21:36;;;;;;;10.32;6.03;;;2.70;99.90;;;;;;5017056;28;20161;-84
2021/03/05 09:24:02;;;;;;;9.45;5.53;;;2.80;99.90;;;;;;5010351;28;20073;-81
2021/03/05 09:26:27;;;;;;;9.88;5.57;;;2.60;99.90;;;;;;5009728;28;20106;-81
2021/03/05 09:28:56;;;;;;;12.40;6.60;;;2.70;99.90;;;;;;5005627;28;20560;-80
2021/03/05 09:31:24;;;;;;;11.13;6.25;;;2.80;99.90;;;;;;5008219;28;20426;-80
2021/03/05 09:33:49;;;;;;;11.52;5.68;;;2.60;99.90;;;;;;4997422;28;20120;-81
2021/03/05 09:36:20;;;;;;;13.27;5.95;;;2.60;99.90;;;;;;5017235;28;20197;-81
2021/03/05 09:38:57;;;;;;;9.38;5.53;;;2.50;99.90;;;;;;5015051;28;20163;-81
2021/03/05 09:41:24;;;;;;;13.60;6.57;;;2.70;99.90;;;;;;5000224;28;20077;-81
2021/03/05 09:44:19;;;;;;;10.32;6.15;;;2.70;99.90;;;;;;5005445;28;20556;-81
2021/03/05 09:46:55;;;;;;;9.40;6.28;;;2.70;99.90;;;;;;4995266;28;20132;-81
2021/03/05 09:49:26;;;;;;;8.05;5.25;;;2.70;99.90;;;;;;4996734;28;20074;-84
2021/03/05 09:51:52;;;;;;;9.10;5.55;;;2.60;99.90;;;;;;5003505;28;20100;-84
2021/03/05 09:54:32;;;;;;;10.68;5.80;;;2.50;99.90;;;;;;5012071;28;20540;-83
2021/03/05 09:56:59;;;;;;;8.85;5.40;;;2.50;99.90;;;;;;5015668;28;20637;-81
2021/03/05 09:59:45;;;;;;;11.80;5.72;;;2.60;99.90;;;;;;5010513;28;20074;-80
2021/03/05 10:02:21;;;;;;;12.20;6.80;;;2.50;99.90;;;;;;5014372;28;20538;-84
2021/03/05 10:04:50;;;;;;;9.98;6.30;;;2.60;99.90;;;;;;5005013;28;20603;-84
2021/03/05 10:07:20;;;;;;;11.15;6.78;;;2.50;99.90;;;;;;5011975;28;20525;-85
2021/03/05 10:09:46;;;;;;;13.23;6.10;;;2.60;99.90;;;;;;5015396;28;20070;-83
2021/03/05 10:12:12;;;;;;;11.07;5.78;;;2.50;99.90;;;;;;5006434;28;20074;-83
2021/03/05 10:14:40;;;;;;;11.95;5.88;;;2.40;99.90;;;;;;5026449;28;20166;-84
2021/03/05 10:17:07;;;;;;;8.30;5.50;;;2.60;99.90;;;;;;5008207;28;20094;-85
2021/03/05 10:19:32;;;;;;;6.25;4.10;;;2.50;99.90;;;;;;5018848;28;20074;-86
2021/03/05 10:21:59;;;;;;;7.70;4.53;;;2.50;99.90;;;;;;5004462;28;20169;-82
2021/03/05 10:24:27;;;;;;;7.25;4.38;;;2.50;99.90;;;;;;5004371;28;20085;-81
2021/03/05 10:27:21;;;;;;;9.05;4.53;;;2.40;99.90;;;;;;5014359;28;20090;-81
2021/03/05 10:29:58;;;;;;;7.60;4.50;;;2.40;99.90;;;;;;5004558;28;20081;-81
2021/03/05 10:32:25;;;;;;;8.55;4.53;;;2.40;99.90;;;;;;5014408;28;20085;-84
2021/03/05 10:35:04;;;;;;;8.77;4.28;;;2.30;99.90;;;;;;5006522;28;20082;-85
2021/03/05 10:37:30;;;;;;;7.38;3.85;;;2.20;99.90;;;;;;5004726;28;20173;-84
2021/03/05 10:39:56;;;;;;;5.40;3.58;;;2.30;99.90;;;;;;5003149;28;20067;-85
2021/03/05 10:42:25;;;;;;;8.88;3.85;;;2.40;99.90;;;;;;5015172;28;20174;-82
2021/03/05 10:44:51;;;;;;;6.97;3.85;;;2.40;99.90;;;;;;5010642;28;20074;-81
2021/03/05 10:47:19;;;;;;;5.85;3.80;;;2.40;99.90;;;;;;5015837;28;20098;-83
2021/03/05 10:49:46;;;;;;;6.85;3.83;;;2.60;99.90;;;;;;5018687;28;20140;-83
2021/03/05 10:52:14;;;;;;;5.90;3.63;;;2.50;99.90;;;;;;5007366;28;20096;-83
2021/03/05 10:54:42;;;;;;;7.15;4.50;;;2.50;99.90;;;;;;5016699;28;20145;-82
2021/03/05 10:57:09;;;;;;;8.60;5.03;;;2.50;99.90;;;;;;5024789;28;20090;-84
2021/03/05 10:59:34;;;;;;;6.70;3.78;;;2.40;99.90;;;;;;5001419;28;20186;-83
2021/03/05 11:02:00;;;;;;;8.00;4.68;;;2.40;99.90;;;;;;5018050;28;20085;-83
2021/03/05 11:04:26;;;;;;;5.00;3.10;;;2.40;99.90;;;;;;5015546;28;20108;-83
2021/03/05 11:06:53;;;;;;;5.95;3.63;;;2.50;99.90;;;;;;5009986;28;20097;-82
2021/03/05 11:09:24;;;;;;;7.07;3.78;;;2.40;99.90;;;;;;5010798;28;20173;-82
2021/03/05 11:11:50;;;;;;;8.05;3.90;;;2.30;99.90;;;;;;5010549;28;20216;-83
2021/03/05 11:14:16;;;;;;;7.97;4.47;;;2.40;99.90;;;;;;5015299;28;20070;-85
2021/03/05 11:16:43;;;;;;;6.10;3.28;;;2.30;99.90;;;;;;5023428;28;20185;-80
2021/03/05 11:19:09;;;;;;;6.90;4.38;;;2.20;99.90;;;;;;5024270;28;20065;-80
2021/03/05 11:21:35;;;;;;;7.10;4.32;;;2.40;99.90;;;;;;5005270;28;20078;-83
2021/03/05 11:24:02;;;;;;;7.47;4.60;;;2.40;99.90;;;;;;5010197;28;20097;-81
2021/03/05 11:26:28;;;;;;;6.68;3.78;;;2.40;99.90;;;;;;5017766;28;20855;-84
2021/03/05 11:28:56;;;;;;;8.15;4.55;;;2.50;99.90;;;;;;5012832;28;20082;-83
2021/03/05 11:31:23;;;;;;;7.30;4.35;;;2.40;99.90;;;;;;5003681;28;20109;-80
2021/03/05 11:33:51;;;;;;;9.05;5.38;;;2.50;99.90;;;;;;5003696;28;20078;-80
2021/03/05 11:36:19;;;;;;;8.00;3.70;;;2.60;99.90;;;;;;5010719;28;20579;-80
2021/03/05 11:38:47;;;;;;;7.43;4.20;;;2.60;99.90;;;;;;5014316;28;20117;-80
2021/03/05 11:41:14;;;;;;;9.38;5.57;;;2.60;99.90;;;;;;5012140;28;20452;-80
2021/03/05 11:43:43;;;;;;;6.55;4.47;;;2.60;99.90;;;;;;5011018;28;20128;-80
2021/03/05 11:46:10;;;;;;;6.47;4.20;;;2.80;99.90;;;;;;5008929;28;20098;-80
2021/03/05 11:48:36;;;;;;;9.30;5.57;;;2.70;99.90;;;;;;5012476;28;20086;-79
2021/03/05 11:51:02;;;;;;;12.07;5.57;;;2.70;99.90;;;;;;5014447;28;20081;-80
2021/03/05 11:53:33;;;;;;;15.63;8.00;;;2.70;99.90;;;;;;5002285;28;20551;-84
2021/03/05 11:55:59;;;;;;;7.68;4.47;;;2.90;99.90;;;;;;5007010;28;20125;-85
2021/03/05 11:58:25;;;;;;;8.65;4.20;;;3.00;99.90;;;;;;5010500;28;20074;-85
2021/03/05 12:00:50;;;;;;;10.32;5.93;;;3.00;99.90;;;;;;5011309;28;20098;-84
2021/03/05 12:03:16;;;;;;;8.90;5.28;;;3.00;99.90;;;;;;5014484;28;20164;-84
2021/03/05 12:05:50;;;;;;;11.27;5.60;;;3.10;99.90;;;;;;5009388;28;20091;-85
2021/03/05 12:08:16;;;;;;;8.23;4.68;;;3.10;99.90;;;;;;5017449;28;20087;-84
2021/03/05 12:10:42;;;;;;;11.75;5.93;;;3.10;99.90;;;;;;5015841;28;20078;-86
2021/03/05 12:13:08;;;;;;;9.23;5.63;;;3.30;99.90;;;;;;5014261;28;20081;-85
2021/03/05 12:15:34;;;;;;;10.52;5.07;;;3.40;99.90;;;;;;5004930;28;20090;-84
2021/03/05 12:17:59;;;;;;;5.35;3.30;;;3.50;99.90;;;;;;5009313;28;20082;-84
2021/03/05 12:20:25;;;;;;;5.60;3.20;;;3.60;99.90;;;;;;4997924;28;20098;-85
2021/03/05 12:22:51;;;;;;;5.55;3.22;;;3.50;99.90;;;;;;5009361;28;20070;-84
2021/03/05 12:25:16;;;;;;;9.60;4.30;;;3.50;99.90;;;;;;5019314;28;20149;-85
2021/03/05 12:27:42;;;;;;;5.45;3.25;;;3.50;99.90;;;;;;5011446;28;20171;-84
2021/03/05 12:30:09;;;;;;;5.10;3.30;;;3.50;99.90;;;;;;5015940;28;20085;-81
2021/03/05 12:32:42;;;;;;;6.60;3.80;;;3.50;99.90;;;;;;5010377;28;20491;-81
2021/03/05 12:35:08;;;;;;;5.07;3.35;;;3.60;99.90;;;;;;5013079;28;20085;-82
2021/03/05 12:37:34;;;;;;;9.88;5.78;;;3.50;99.90;;;;;;5013210;28;20094;-84
2021/03/05 12:40:00;;;;;;;6.57;4.00;;;3.50;99.90;;;;;;5007458;28;20136;-83
2021/03/05 12:42:26;;;;;;;10.98;6.15;;;3.60;99.90;;;;;;5005656;28;20144;-84
2021/03/05 12:44:51;;;;;;;7.55;4.18;;;3.70;99.90;;;;;;5005948;28;20078;-85
2021/03/05 12:47:17;;;;;;;5.88;3.17;;;3.70;99.90;;;;;;5008974;28;20549;-86
2021/03/05 12:49:43;;;;;;;4.60;3.00;;;3.60;99.90;;;;;;5009787;28;20089;-84
2021/03/05 12:52:09;;;;;;;5.10;2.97;;;3.60;99.90;;;;;;5012160;28;20078;-85
2021/03/05 12:54:34;;;;;;;4.80;3.05;;;3.60;99.90;;;;;;5014811;28;20082;-84
2021/03/05 12:57:00;;;;;;;4.35;2.63;;;3.60;99.90;;;;;;5035235;28;20122;-82
2021/03/05 12:59:26;;;;;;;6.32;3.78;;;3.60;99.90;;;;;;5015806;28;20086;-80
2021/03/05 13:01:51;;;;;;;5.15;3.22;;;3.80;99.90;;;;;;5018857;28;20133;-81
2021/03/05 13:04:17;;;;;;;3.95;2.78;;;3.90;99.90;;;;;;5023876;28;20151;-83
2021/03/05 13:06:44;;;;;;;7.20;3.72;;;3.90;99.90;;;;;;5024162;28;20101;-83